createdAt,value
2023-09-07T00:00:11.710Z,16.00
2023-09-07T00:02:44.261Z,15.90
2023-09-07T00:05:16.326Z,15.90
2023-09-07T00:07:48.146Z,15.90
2023-09-07T00:10:19.939Z,15.80
2023-09-07T00:12:51.775Z,15.80
2023-09-07T00:15:24.343Z,15.80
2023-09-07T00:17:57.416Z,15.80
2023-09-07T00:20:29.210Z,15.70
2023-09-07T00:23:02.055Z,15.70
2023-09-07T00:25:33.912Z,15.70
2023-09-07T00:28:05.962Z,15.70
2023-09-07T00:30:37.820Z,15.70
2023-09-07T00:33:09.828Z,15.70
2023-09-07T00:35:41.608Z,15.60
2023-09-07T00:38:13.595Z,15.60
2023-09-07T00:40:48.698Z,15.60
2023-09-07T00:43:20.554Z,15.60
2023-09-07T00:45:52.538Z,15.60
2023-09-07T00:48:24.882Z,15.50
2023-09-07T00:50:56.721Z,15.50
2023-09-07T00:53:28.756Z,15.50
2023-09-07T00:56:01.070Z,15.40
2023-09-07T00:58:33.287Z,15.40
2023-09-07T01:01:05.423Z,15.30
2023-09-07T01:03:37.358Z,15.20
2023-09-07T01:06:15.750Z,15.10
2023-09-07T01:08:51.964Z,15.00
2023-09-07T01:11:24.651Z,15.00
2023-09-07T01:13:57.506Z,15.00
2023-09-07T01:16:30.069Z,15.00
2023-09-07T01:19:02.799Z,14.90
2023-09-07T01:21:44.490Z,14.90
2023-09-07T01:24:17.482Z,14.90
2023-09-07T01:26:50.617Z,14.90
2023-09-07T01:29:22.652Z,14.80
2023-09-07T01:31:54.607Z,14.80
2023-09-07T01:34:26.661Z,14.80
2023-09-07T01:36:59.576Z,14.90
2023-09-07T01:39:31.359Z,14.90
2023-09-07T01:42:03.471Z,14.90
2023-09-07T01:44:36.163Z,14.90
2023-09-07T01:47:08.003Z,14.90
2023-09-07T01:49:40.020Z,14.90
2023-09-07T01:52:11.931Z,14.80
2023-09-07T01:54:43.694Z,14.70
2023-09-07T01:57:15.476Z,14.70
2023-09-07T01:59:49.329Z,14.80
2023-09-07T02:02:21.101Z,14.70
2023-09-07T02:04:53.509Z,14.70
2023-09-07T02:07:25.303Z,14.70
2023-09-07T02:09:57.065Z,14.70
2023-09-07T02:12:28.806Z,14.70
2023-09-07T02:15:03.198Z,14.60
2023-09-07T02:17:35.201Z,14.60
2023-09-07T02:20:11.710Z,14.50
2023-09-07T02:22:43.863Z,14.50
2023-09-07T02:25:15.697Z,14.50
2023-09-07T02:27:48.390Z,14.50
2023-09-07T02:30:20.284Z,14.50
2023-09-07T02:32:52.401Z,14.50
2023-09-07T02:35:24.463Z,14.50
2023-09-07T02:37:56.257Z,14.60
2023-09-07T02:40:28.098Z,14.60
2023-09-07T02:42:59.863Z,14.50
2023-09-07T02:45:32.401Z,14.50
2023-09-07T02:48:04.893Z,14.50
2023-09-07T02:50:37.114Z,14.50
2023-09-07T02:53:09.661Z,14.50
2023-09-07T02:55:41.532Z,14.40
2023-09-07T02:58:13.481Z,14.30
2023-09-07T03:00:46.400Z,14.30
2023-09-07T03:03:20.333Z,14.20
2023-09-07T03:05:52.829Z,14.20
2023-09-07T03:08:25.962Z,14.20
2023-09-07T03:10:57.801Z,14.20
2023-09-07T03:13:29.629Z,14.20
2023-09-07T03:16:03.663Z,14.20
2023-09-07T03:18:35.614Z,14.20
2023-09-07T03:21:07.547Z,14.30
2023-09-07T03:23:45.201Z,14.20
2023-09-07T03:26:18.683Z,14.20
2023-09-07T03:28:50.744Z,14.20
2023-09-07T03:31:22.751Z,14.20
2023-09-07T03:33:55.943Z,14.20
2023-09-07T03:36:27.764Z,14.20
2023-09-07T03:38:59.646Z,14.10
2023-09-07T03:41:31.951Z,14.10
2023-09-07T03:44:05.249Z,14.10
2023-09-07T03:46:37.151Z,14.10
2023-09-07T03:49:09.274Z,14.10
2023-09-07T03:51:41.187Z,14.10
2023-09-07T03:54:13.815Z,14.10
2023-09-07T03:56:45.660Z,14.10
2023-09-07T03:59:18.121Z,14.10
2023-09-07T04:01:50.433Z,14.10
2023-09-07T04:04:22.396Z,14.10
2023-09-07T04:06:54.215Z,14.10
2023-09-07T04:09:25.952Z,14.00
2023-09-07T04:11:57.725Z,14.00
2023-09-07T04:14:30.421Z,14.00
2023-09-07T04:17:02.476Z,14.00
2023-09-07T04:19:34.489Z,14.00
2023-09-07T04:22:06.320Z,13.90
2023-09-07T04:24:38.264Z,13.80
2023-09-07T04:27:10.701Z,13.80
2023-09-07T04:29:42.457Z,13.70
2023-09-07T04:32:14.262Z,13.70
2023-09-07T04:34:47.072Z,13.70
2023-09-07T04:37:18.899Z,13.70
2023-09-07T04:39:53.982Z,13.60
2023-09-07T04:42:26.492Z,13.50
2023-09-07T04:44:58.257Z,13.50
2023-09-07T04:47:30.111Z,13.50
2023-09-07T04:50:02.002Z,13.50
2023-09-07T04:52:35.891Z,13.50
2023-09-07T04:55:08.309Z,13.60
2023-09-07T04:57:40.689Z,13.60
2023-09-07T05:00:13.118Z,13.60
2023-09-07T05:02:45.297Z,13.60
2023-09-07T05:05:17.143Z,13.60
2023-09-07T05:07:48.969Z,13.60
2023-09-07T05:10:20.792Z,13.70
2023-09-07T05:12:52.712Z,13.70
2023-09-07T05:15:24.532Z,13.80
2023-09-07T05:17:56.797Z,13.90
2023-09-07T05:20:31.474Z,13.90
2023-09-07T05:23:03.395Z,13.90
2023-09-07T05:25:35.183Z,13.90
2023-09-07T05:28:07.157Z,14.10
2023-09-07T05:30:39.361Z,14.30
2023-09-07T05:33:11.873Z,14.40
2023-09-07T05:35:44.340Z,14.40
2023-09-07T05:38:16.214Z,14.50
2023-09-07T05:40:51.523Z,14.90
2023-09-07T05:43:24.274Z,15.40
2023-09-07T05:45:56.574Z,15.80
2023-09-07T05:48:28.519Z,16.00
2023-09-07T05:51:00.488Z,16.20
2023-09-07T05:53:32.358Z,16.40
2023-09-07T05:56:04.297Z,16.40
2023-09-07T05:58:37.121Z,16.30
2023-09-07T06:01:09.441Z,16.30
2023-09-07T06:03:42.591Z,16.30
2023-09-07T06:06:14.744Z,16.30
2023-09-07T06:08:46.651Z,16.30
2023-09-07T06:11:19.107Z,16.30
2023-09-07T06:13:50.967Z,16.30
2023-09-07T06:16:23.084Z,16.50
2023-09-07T06:18:54.967Z,16.80
2023-09-07T06:21:26.791Z,17.00
2023-09-07T06:23:58.534Z,17.30
2023-09-07T06:26:30.456Z,17.50
2023-09-07T06:29:02.323Z,17.70
2023-09-07T06:31:34.264Z,17.90
2023-09-07T06:34:06.201Z,18.10
2023-09-07T06:36:47.849Z,18.30
2023-09-07T06:39:23.520Z,19.00
2023-09-07T06:41:55.417Z,18.80
2023-09-07T06:44:31.192Z,19.00
2023-09-07T06:47:03.292Z,19.10
2023-09-07T06:49:35.670Z,19.70
2023-09-07T06:52:08.440Z,19.30
2023-09-07T06:54:42.368Z,19.50
2023-09-07T06:57:14.279Z,19.60
2023-09-07T06:59:46.110Z,19.70
2023-09-07T07:02:17.930Z,19.60
2023-09-07T07:04:50.206Z,19.60
2023-09-07T07:07:22.755Z,19.70
2023-09-07T07:09:54.679Z,19.90
2023-09-07T07:12:27.449Z,19.90
2023-09-07T07:14:59.948Z,20.00
2023-09-07T07:17:32.120Z,20.10
2023-09-07T07:20:04.363Z,19.90
2023-09-07T07:22:36.942Z,20.00
2023-09-07T07:25:11.239Z,20.00
2023-09-07T07:27:43.074Z,20.00
2023-09-07T07:30:15.134Z,20.10
2023-09-07T07:32:47.246Z,20.10
2023-09-07T07:35:19.682Z,20.20
2023-09-07T07:37:51.927Z,20.30
2023-09-07T07:40:24.162Z,20.50
2023-09-07T07:42:56.371Z,20.50
2023-09-07T07:45:28.304Z,20.60
2023-09-07T07:48:00.375Z,20.80
2023-09-07T07:50:32.725Z,20.90
2023-09-07T07:53:04.776Z,20.90
2023-09-07T07:55:39.834Z,21.00
2023-09-07T07:58:13.351Z,21.00
2023-09-07T08:00:48.959Z,21.10
2023-09-07T08:03:25.528Z,21.10
2023-09-07T08:05:58.303Z,21.20
2023-09-07T08:08:30.474Z,21.30
2023-09-07T08:11:06.730Z,21.30
2023-09-07T08:13:40.902Z,21.50
2023-09-07T08:16:14.861Z,21.70
2023-09-07T08:18:47.387Z,21.90
2023-09-07T08:21:21.156Z,22.00
2023-09-07T08:23:54.240Z,22.30
2023-09-07T08:26:26.186Z,22.70
2023-09-07T08:28:57.969Z,22.80
2023-09-07T08:31:29.773Z,22.70
2023-09-07T08:34:06.478Z,22.80
2023-09-07T08:36:38.657Z,22.80
2023-09-07T08:39:13.922Z,22.80
2023-09-07T08:42:00.674Z,23.00
2023-09-07T08:44:34.962Z,23.00
2023-09-07T08:47:07.551Z,23.00
2023-09-07T08:49:40.301Z,23.10
2023-09-07T08:52:12.635Z,23.30
2023-09-07T08:54:45.126Z,23.60
2023-09-07T08:57:17.422Z,23.00
2023-09-07T08:59:50.511Z,23.80
2023-09-07T09:02:22.409Z,23.80
2023-09-07T09:04:54.799Z,23.90
2023-09-07T09:07:27.206Z,24.30
2023-09-07T09:10:07.156Z,24.40
2023-09-07T09:12:47.935Z,24.50
2023-09-07T09:15:19.740Z,24.80
2023-09-07T09:17:51.666Z,24.90
2023-09-07T09:20:25.173Z,25.10
2023-09-07T09:22:57.522Z,25.30
2023-09-07T09:25:29.567Z,25.40
2023-09-07T09:28:01.359Z,25.40
2023-09-07T09:30:33.178Z,25.50
2023-09-07T09:33:06.902Z,25.60
2023-09-07T09:35:39.686Z,25.60
2023-09-07T09:38:14.428Z,25.70
2023-09-07T09:40:46.547Z,25.90
2023-09-07T09:43:20.628Z,26.00
2023-09-07T09:45:53.550Z,26.20
2023-09-07T09:48:25.456Z,26.30
2023-09-07T09:50:58.225Z,26.30
2023-09-07T09:53:30.433Z,26.40
2023-09-07T09:56:02.314Z,26.30
2023-09-07T09:58:34.807Z,26.30
2023-09-07T10:01:09.145Z,26.30
2023-09-07T10:03:48.057Z,26.30
2023-09-07T10:06:25.648Z,26.40
2023-09-07T10:09:05.201Z,26.40
2023-09-07T10:11:39.282Z,26.50
2023-09-07T10:14:12.662Z,26.50
2023-09-07T10:16:54.003Z,25.90
2023-09-07T10:19:27.432Z,26.50
2023-09-07T10:21:59.352Z,26.60
2023-09-07T10:24:37.011Z,26.60
2023-09-07T10:27:12.424Z,26.70
2023-09-07T10:29:56.827Z,26.70
2023-09-07T10:32:42.187Z,26.80
2023-09-07T10:35:16.124Z,26.80
2023-09-07T10:37:48.095Z,26.90
2023-09-07T10:40:22.381Z,26.90
2023-09-07T10:43:06.406Z,26.80
2023-09-07T10:45:38.261Z,26.70
2023-09-07T10:48:10.108Z,26.60
2023-09-07T10:50:46.253Z,26.60
2023-09-07T10:53:29.761Z,26.60
2023-09-07T10:56:05.726Z,26.40
2023-09-07T10:58:43.127Z,26.50
2023-09-07T11:01:17.474Z,26.60
2023-09-07T11:03:49.963Z,26.50
2023-09-07T11:06:25.750Z,26.40
2023-09-07T11:09:05.956Z,26.40
2023-09-07T11:11:38.151Z,26.50
2023-09-07T11:14:10.045Z,26.50
2023-09-07T11:16:44.331Z,26.50
2023-09-07T11:19:20.142Z,26.80
2023-09-07T11:21:54.935Z,26.90
2023-09-07T11:24:27.206Z,26.90
2023-09-07T11:26:59.143Z,27.00
2023-09-07T11:29:33.859Z,27.00
2023-09-07T11:32:09.995Z,25.70
2023-09-07T11:34:52.881Z,27.00
2023-09-07T11:37:26.900Z,27.00
2023-09-07T11:39:58.786Z,27.10
2023-09-07T11:42:30.614Z,27.10
2023-09-07T11:45:02.398Z,27.20
2023-09-07T11:47:35.953Z,27.40
2023-09-07T11:50:08.042Z,27.50
2023-09-07T11:52:39.905Z,27.50
2023-09-07T11:55:11.783Z,27.60
2023-09-07T11:57:43.974Z,27.40
2023-09-07T12:00:16.265Z,27.40
2023-09-07T12:02:48.191Z,27.40
2023-09-07T12:05:20.816Z,27.50
2023-09-07T12:07:52.845Z,27.70
2023-09-07T12:10:24.737Z,27.70
2023-09-07T12:12:56.610Z,27.70
2023-09-07T12:15:28.412Z,27.80
2023-09-07T12:18:00.306Z,27.90
2023-09-07T12:20:32.289Z,27.90
2023-09-07T12:23:04.496Z,28.00
2023-09-07T12:25:36.510Z,28.10
2023-09-07T12:28:08.464Z,28.10
2023-09-07T12:30:40.299Z,28.00
2023-09-07T12:33:12.418Z,28.00
2023-09-07T12:35:44.313Z,28.00
2023-09-07T12:38:18.972Z,28.10
2023-09-07T12:40:50.715Z,28.10
2023-09-07T12:43:22.613Z,28.00
2023-09-07T12:45:54.458Z,28.10
2023-09-07T12:48:26.321Z,28.30
2023-09-07T12:50:58.060Z,28.40
2023-09-07T12:53:30.381Z,28.40
2023-09-07T12:56:04.132Z,28.50
2023-09-07T12:58:36.672Z,28.50
2023-09-07T13:01:11.164Z,28.60
2023-09-07T13:03:43.250Z,28.60
2023-09-07T13:06:15.367Z,28.70
2023-09-07T13:08:47.164Z,28.80
2023-09-07T13:11:19.507Z,28.90
2023-09-07T13:13:51.358Z,28.90
2023-09-07T13:16:23.161Z,29.00
2023-09-07T13:18:54.965Z,29.00
2023-09-07T13:21:26.847Z,29.00
2023-09-07T13:23:58.978Z,28.90
2023-09-07T13:26:31.498Z,28.90
2023-09-07T13:29:03.563Z,29.00
2023-09-07T13:31:36.297Z,28.90
2023-09-07T13:34:08.174Z,28.80
2023-09-07T13:36:39.934Z,28.80
2023-09-07T13:39:11.767Z,28.90
2023-09-07T13:41:43.538Z,28.90
2023-09-07T13:44:16.106Z,29.00
2023-09-07T13:46:48.503Z,28.90
2023-09-07T13:49:20.438Z,29.00
2023-09-07T13:51:52.327Z,29.10
2023-09-07T13:54:24.303Z,29.10
2023-09-07T13:56:56.765Z,29.20
2023-09-07T13:59:33.653Z,29.30
2023-09-07T14:02:05.515Z,29.30
2023-09-07T14:04:37.424Z,29.40
2023-09-07T14:07:09.219Z,29.40
2023-09-07T14:09:40.987Z,29.30
2023-09-07T14:12:12.794Z,29.30
2023-09-07T14:14:44.545Z,29.30
2023-09-07T14:17:16.329Z,29.30
2023-09-07T14:19:48.168Z,29.20
2023-09-07T14:22:19.917Z,29.10
2023-09-07T14:24:51.676Z,29.20
2023-09-07T14:27:23.441Z,29.30
2023-09-07T14:29:55.288Z,29.40
2023-09-07T14:32:27.221Z,29.30
2023-09-07T14:34:59.477Z,29.40
2023-09-07T14:37:31.328Z,29.40
2023-09-07T14:40:03.808Z,29.40
2023-09-07T14:42:37.788Z,29.50
2023-09-07T14:45:10.001Z,29.40
2023-09-07T14:47:41.872Z,29.00
2023-09-07T14:50:13.661Z,29.40
2023-09-07T14:52:48.208Z,29.40
2023-09-07T14:55:20.468Z,29.50
2023-09-07T14:57:52.591Z,29.40
2023-09-07T15:00:25.824Z,29.40
2023-09-07T15:02:57.738Z,29.30
2023-09-07T15:05:30.473Z,29.10
2023-09-07T15:08:03.998Z,29.00
2023-09-07T15:10:36.211Z,28.80
2023-09-07T15:13:09.238Z,28.70
2023-09-07T15:15:41.190Z,28.80
2023-09-07T15:18:13.132Z,28.80
2023-09-07T15:20:45.091Z,28.80
2023-09-07T15:23:16.917Z,28.80
2023-09-07T15:25:49.066Z,28.70
2023-09-07T15:28:20.890Z,28.70
2023-09-07T15:30:52.688Z,28.60
2023-09-07T15:33:24.575Z,28.50
2023-09-07T15:35:56.498Z,28.40
2023-09-07T15:38:29.165Z,28.30
2023-09-07T15:41:05.538Z,28.20
2023-09-07T15:43:38.740Z,28.20
2023-09-07T15:46:11.720Z,28.20
2023-09-07T15:48:43.611Z,28.10
2023-09-07T15:51:15.405Z,27.90
2023-09-07T15:53:47.188Z,27.90
2023-09-07T15:56:19.011Z,27.80
2023-09-07T15:58:50.800Z,27.80
2023-09-07T16:01:23.025Z,27.80
2023-09-07T16:03:55.144Z,27.80
2023-09-07T16:06:28.022Z,27.80
2023-09-07T16:09:01.569Z,27.80
2023-09-07T16:11:33.347Z,27.70
2023-09-07T16:14:05.307Z,27.60
2023-09-07T16:16:37.125Z,27.50
2023-09-07T16:19:09.495Z,27.40
2023-09-07T16:21:41.269Z,27.30
2023-09-07T16:24:13.040Z,27.30
2023-09-07T16:26:44.901Z,27.20
2023-09-07T16:29:16.688Z,27.10
2023-09-07T16:31:48.595Z,27.00
2023-09-07T16:34:20.356Z,26.90
2023-09-07T16:36:52.139Z,26.70
2023-09-07T16:39:23.891Z,26.60
2023-09-07T16:41:55.642Z,26.50
2023-09-07T16:44:27.426Z,26.40
2023-09-07T16:46:59.209Z,26.30
2023-09-07T16:49:31.372Z,26.20
2023-09-07T16:52:03.340Z,26.10
2023-09-07T16:54:35.129Z,26.00
2023-09-07T16:57:09.573Z,25.90
2023-09-07T17:02:16.187Z,25.70
2023-09-07T17:04:48.110Z,25.60
2023-09-07T17:07:21.224Z,25.50
2023-09-07T17:09:53.130Z,25.40
2023-09-07T17:12:25.938Z,25.30
2023-09-07T17:14:57.895Z,25.20
2023-09-07T17:17:29.823Z,25.10
2023-09-07T17:20:01.891Z,25.00
2023-09-07T17:22:33.668Z,24.90
2023-09-07T17:25:05.781Z,24.80
2023-09-07T17:27:37.576Z,24.70
2023-09-07T17:30:09.469Z,24.60
2023-09-07T17:32:41.460Z,24.50
2023-09-07T17:35:13.386Z,24.40
2023-09-07T17:37:45.155Z,24.30
2023-09-07T17:40:17.240Z,24.20
2023-09-07T17:42:49.145Z,24.20
2023-09-07T17:45:21.010Z,24.10
2023-09-07T17:47:54.071Z,24.00
2023-09-07T17:50:25.957Z,23.80
2023-09-07T17:52:57.760Z,24.20
2023-09-07T17:55:29.540Z,23.70
2023-09-07T17:58:01.284Z,23.60
2023-09-07T18:00:33.554Z,23.50
2023-09-07T18:03:05.694Z,23.50
2023-09-07T18:05:37.837Z,23.40
2023-09-07T18:08:09.645Z,23.30
2023-09-07T18:10:41.414Z,23.20
2023-09-07T18:13:13.240Z,23.10
2023-09-07T18:15:46.281Z,23.00
2023-09-07T18:18:18.749Z,23.00
2023-09-07T18:20:50.556Z,22.90
2023-09-07T18:23:24.975Z,22.90
2023-09-07T18:25:59.053Z,22.80
2023-09-07T18:28:32.611Z,22.70
2023-09-07T18:31:11.051Z,22.70
2023-09-07T18:33:43.016Z,22.60
2023-09-07T18:36:14.794Z,22.60
2023-09-07T18:38:46.540Z,22.50
2023-09-07T18:41:18.307Z,22.50
2023-09-07T18:43:52.019Z,22.40
2023-09-07T18:46:25.273Z,22.30
2023-09-07T18:48:57.286Z,22.30
2023-09-07T18:51:29.038Z,22.30
2023-09-07T18:54:00.782Z,22.20
2023-09-07T18:56:33.214Z,22.20
2023-09-07T18:59:06.089Z,22.10
2023-09-07T19:01:37.929Z,21.10
2023-09-07T19:04:13.559Z,22.00
2023-09-07T19:06:45.540Z,21.90
2023-09-07T19:09:17.314Z,21.80
2023-09-07T19:11:49.110Z,21.80
2023-09-07T19:14:20.981Z,21.60
2023-09-07T19:16:53.192Z,21.50
2023-09-07T19:19:25.107Z,21.40
2023-09-07T19:21:56.861Z,21.40
2023-09-07T19:24:28.964Z,21.30
2023-09-07T19:27:00.880Z,21.30
2023-09-07T19:29:32.995Z,21.20
2023-09-07T19:32:05.506Z,21.20
2023-09-07T19:34:37.334Z,21.10
2023-09-07T19:37:09.312Z,21.00
2023-09-07T19:39:41.294Z,21.00
2023-09-07T19:42:13.372Z,21.00
2023-09-07T19:44:45.257Z,21.00
2023-09-07T19:47:18.291Z,20.90
2023-09-07T19:49:50.078Z,20.80
2023-09-07T19:52:21.805Z,20.70
2023-09-07T19:54:53.606Z,20.70
2023-09-07T19:57:26.248Z,20.60
2023-09-07T19:59:58.009Z,19.40
2023-09-07T20:02:31.248Z,20.30
2023-09-07T20:05:04.015Z,20.20
2023-09-07T20:07:40.319Z,20.20
2023-09-07T20:10:12.256Z,20.10
2023-09-07T20:12:44.054Z,20.10
2023-09-07T20:15:16.044Z,20.00
2023-09-07T20:17:50.891Z,19.90
2023-09-07T20:20:22.946Z,19.90
2023-09-07T20:22:54.688Z,19.80
2023-09-07T20:25:27.040Z,19.80
2023-09-07T20:27:58.795Z,19.80
2023-09-07T20:30:31.117Z,19.70
2023-09-07T20:33:03.225Z,19.70
2023-09-07T20:35:35.076Z,19.60
2023-09-07T20:38:07.129Z,19.50
2023-09-07T20:40:38.923Z,19.70
2023-09-07T20:43:11.670Z,19.40
2023-09-07T20:45:43.568Z,19.40
2023-09-07T20:48:17.774Z,19.30
2023-09-07T20:50:50.402Z,19.20
2023-09-07T20:53:22.598Z,19.10
2023-09-07T20:55:54.382Z,19.40
2023-09-07T20:58:26.321Z,19.10
2023-09-07T21:00:58.322Z,19.00
2023-09-07T21:03:31.480Z,19.00
2023-09-07T21:06:03.764Z,18.90
2023-09-07T21:08:36.841Z,18.80
2023-09-07T21:11:08.801Z,18.80
2023-09-07T21:13:40.544Z,18.70
2023-09-07T21:16:12.514Z,18.70
2023-09-07T21:18:44.650Z,18.60
2023-09-07T21:21:16.487Z,18.60
2023-09-07T21:23:49.759Z,18.50
2023-09-07T21:26:21.546Z,18.50
2023-09-07T21:28:53.388Z,18.50
2023-09-07T21:31:25.237Z,18.40
2023-09-07T21:33:57.054Z,18.40
2023-09-07T21:36:28.853Z,18.40
2023-09-07T21:39:00.657Z,18.30
2023-09-07T21:41:45.756Z,18.30
2023-09-07T21:44:19.249Z,18.20
2023-09-07T21:46:51.597Z,18.20
2023-09-07T21:49:23.456Z,18.10
2023-09-07T21:51:55.230Z,18.10
2023-09-07T21:54:27.114Z,18.00
2023-09-07T21:56:59.233Z,18.00
2023-09-07T21:59:31.358Z,17.90
2023-09-07T22:02:03.348Z,17.80
2023-09-07T22:04:35.201Z,17.80
2023-09-07T22:07:06.981Z,18.00
2023-09-07T22:09:38.861Z,17.70
2023-09-07T22:12:10.672Z,17.60
2023-09-07T22:14:42.514Z,17.60
2023-09-07T22:17:15.320Z,17.50
2023-09-07T22:19:47.219Z,17.40
2023-09-07T22:22:18.998Z,17.40
2023-09-07T22:24:50.954Z,17.30
2023-09-07T22:27:24.252Z,17.30
2023-09-07T22:29:56.118Z,17.20
2023-09-07T22:32:27.946Z,17.20
2023-09-07T22:34:59.745Z,17.10
2023-09-07T22:37:31.557Z,17.00
2023-09-07T22:40:03.393Z,17.00
2023-09-07T22:42:35.232Z,16.90
2023-09-07T22:45:07.601Z,16.90
2023-09-07T22:47:40.178Z,17.00
2023-09-07T22:50:12.577Z,17.00
2023-09-07T22:52:44.357Z,17.00
2023-09-07T22:55:46.737Z,17.00
2023-09-07T22:58:19.515Z,16.90
2023-09-07T23:00:52.951Z,16.90
2023-09-07T23:03:25.155Z,16.90
2023-09-07T23:05:57.224Z,16.90
2023-09-07T23:08:32.492Z,16.80
2023-09-07T23:11:05.565Z,16.70
2023-09-07T23:13:37.600Z,16.80
2023-09-07T23:16:09.825Z,16.70
2023-09-07T23:18:42.122Z,16.70
2023-09-07T23:21:13.979Z,16.60
2023-09-07T23:23:45.758Z,16.60
2023-09-07T23:26:21.592Z,16.60
2023-09-07T23:28:53.460Z,16.50
2023-09-07T23:31:25.492Z,16.50
2023-09-07T23:33:57.385Z,16.50
2023-09-07T23:36:29.145Z,16.40
2023-09-07T23:39:00.946Z,16.40
2023-09-07T23:41:32.781Z,16.40
2023-09-07T23:44:04.764Z,16.30
2023-09-07T23:46:36.600Z,16.20
2023-09-07T23:49:08.472Z,16.20
2023-09-07T23:51:40.704Z,16.20
2023-09-07T23:54:12.467Z,16.20
2023-09-07T23:56:44.831Z,16.10
2023-09-07T23:59:16.592Z,16.10
